Time;durP1;ratioP1;P1;durP2;ratioP2;P2;SDS_P1;SDS_P2;PMS_P1;PMS_P2;Temp;Humidity;BMP_temperature;BMP_pressure;BME280_temperature;BME280_humidity;BME280_pressure;Samples;Min_cycle;Max_cycle;Signal;HPM_P1;HPM_P2
2022/05/13 00:01:09;;;;;;;4.22;2.40;;;10.30;99.90;;;;;;5115826;27;20043;-78
2022/05/13 00:03:35;;;;;;;4.78;2.30;;;10.30;99.90;;;;;;5116193;27;20470;-78
2022/05/13 00:06:01;;;;;;;5.65;2.33;;;10.30;99.90;;;;;;5134225;27;20051;-78
2022/05/13 00:08:28;;;;;;;7.43;2.28;;;10.30;99.90;;;;;;5134380;27;20084;-78
2022/05/13 00:10:55;;;;;;;5.47;2.25;;;10.30;99.90;;;;;;5115779;27;20397;-77
2022/05/13 00:13:21;;;;;;;5.80;2.15;;;10.20;99.90;;;;;;5116817;27;20134;-77
2022/05/13 00:15:46;;;;;;;8.10;2.78;;;10.20;99.90;;;;;;5132355;27;20046;-77
2022/05/13 00:18:13;;;;;;;7.82;3.00;;;10.20;99.90;;;;;;5135108;27;20102;-80
2022/05/13 00:20:39;;;;;;;5.75;2.33;;;10.20;99.90;;;;;;5123271;27;20122;-79
2022/05/13 00:23:04;;;;;;;6.00;2.38;;;10.20;99.90;;;;;;5115719;27;20118;-79
2022/05/13 00:25:33;;;;;;;5.15;2.17;;;10.20;99.90;;;;;;5115378;27;20062;-78
2022/05/13 00:28:00;;;;;;;5.97;2.13;;;10.30;99.90;;;;;;5134035;27;20121;-78
2022/05/13 00:30:28;;;;;;;10.32;2.10;;;10.30;99.90;;;;;;5115138;27;20357;-79
2022/05/13 00:32:54;;;;;;;3.42;1.83;;;10.40;99.90;;;;;;5115280;27;20070;-78
2022/05/13 00:35:21;;;;;;;6.30;1.75;;;10.40;99.90;;;;;;5114667;27;20069;-79
2022/05/13 00:37:46;;;;;;;4.78;2.13;;;10.50;99.90;;;;;;5115537;27;20047;-78
2022/05/13 00:40:14;;;;;;;8.80;2.13;;;10.50;99.90;;;;;;5133473;27;20062;-78
2022/05/13 00:42:40;;;;;;;2.70;1.60;;;10.50;99.90;;;;;;5115304;27;20116;-78
2022/05/13 00:45:06;;;;;;;9.77;2.20;;;10.60;99.90;;;;;;5115161;27;20039;-78
2022/05/13 00:47:31;;;;;;;5.38;2.00;;;10.60;99.90;;;;;;5115513;27;20459;-78
2022/05/13 00:49:59;;;;;;;5.35;1.80;;;10.60;99.90;;;;;;5114761;27;20038;-79
2022/05/13 00:52:27;;;;;;;5.35;1.60;;;10.60;99.90;;;;;;5115192;27;20085;-79
2022/05/13 00:54:53;;;;;;;7.75;1.55;;;10.70;99.90;;;;;;5114926;27;20123;-79
2022/05/13 00:57:21;;;;;;;3.53;1.48;;;10.70;99.90;;;;;;5115044;27;20118;-79
2022/05/13 00:59:49;;;;;;;3.15;1.40;;;10.80;99.90;;;;;;5132953;27;20138;-79
2022/05/13 01:02:15;;;;;;;6.38;1.75;;;10.80;99.90;;;;;;5114988;27;20054;-78
2022/05/13 01:04:41;;;;;;;5.10;2.10;;;10.80;99.90;;;;;;5114960;27;20516;-79
2022/05/13 01:07:13;;;;;;;7.85;1.50;;;10.80;99.90;;;;;;5097947;27;20405;-79
2022/05/13 01:09:44;;;;;;;4.63;1.60;;;10.90;99.90;;;;;;5114555;27;20046;-78
2022/05/13 01:12:13;;;;;;;3.45;1.35;;;10.90;99.90;;;;;;5115064;27;20118;-78
2022/05/13 01:14:52;;;;;;;5.40;2.03;;;10.90;99.90;;;;;;5114587;27;20042;-79
2022/05/13 01:20:09;;;;;;;4.35;1.85;;;10.90;99.90;;;;;;5132625;27;20062;-78
2022/05/13 01:22:44;;;;;;;5.28;1.60;;;10.90;99.90;;;;;;5114628;27;20070;-79
2022/05/13 01:25:13;;;;;;;5.22;1.90;;;10.90;99.90;;;;;;5133457;27;20038;-78
2022/05/13 01:27:41;;;;;;;4.18;1.52;;;10.90;99.90;;;;;;5114670;27;20039;-78
2022/05/13 01:30:07;;;;;;;2.78;1.73;;;10.90;99.90;;;;;;5114056;27;20035;-78
2022/05/13 01:32:33;;;;;;;5.82;2.20;;;10.90;99.90;;;;;;5097563;27;20046;-79
2022/05/13 01:34:58;;;;;;;5.35;1.60;;;10.90;99.90;;;;;;5114688;27;20043;-78
2022/05/13 01:37:24;;;;;;;2.17;1.70;;;10.90;99.90;;;;;;5114415;27;20053;-78
2022/05/13 01:39:49;;;;;;;6.63;1.80;;;10.90;99.90;;;;;;5114265;27;20043;-80
2022/05/13 01:42:16;;;;;;;6.50;2.03;;;10.90;99.90;;;;;;5114271;27;20074;-78
2022/05/13 01:44:41;;;;;;;2.47;1.48;;;10.90;99.90;;;;;;5114380;28;20194;-79
2022/05/13 01:47:07;;;;;;;4.35;1.65;;;10.90;99.90;;;;;;5114070;27;20643;-78
2022/05/13 01:49:32;;;;;;;3.00;1.67;;;10.90;99.90;;;;;;5113966;27;20043;-78
2022/05/13 01:51:58;;;;;;;4.60;1.80;;;10.90;99.90;;;;;;5097188;28;20069;-79
2022/05/13 01:54:24;;;;;;;8.95;2.50;;;10.90;99.90;;;;;;5114236;28;20572;-79
2022/05/13 01:56:49;;;;;;;6.35;1.98;;;10.90;99.90;;;;;;5114228;28;20122;-79
2022/05/13 01:59:15;;;;;;;5.50;2.13;;;10.80;99.90;;;;;;5114118;28;20039;-78
2022/05/13 02:01:40;;;;;;;4.53;2.10;;;10.90;99.90;;;;;;5113882;28;20074;-78
2022/05/13 02:04:06;;;;;;;7.50;1.90;;;10.80;99.90;;;;;;5113984;28;20035;-80
2022/05/13 02:06:32;;;;;;;5.65;1.77;;;10.80;99.90;;;;;;5114467;28;20054;-78
2022/05/13 02:08:58;;;;;;;4.68;1.63;;;10.80;99.90;;;;;;5114135;28;20436;-79
2022/05/13 02:11:25;;;;;;;5.78;2.55;;;10.80;99.90;;;;;;5113863;28;20075;-78
2022/05/13 02:13:52;;;;;;;4.40;1.50;;;10.80;99.90;;;;;;5113963;28;20088;-78
2022/05/13 02:16:18;;;;;;;3.85;1.80;;;10.80;99.90;;;;;;5114046;28;20110;-78
2022/05/13 02:18:44;;;;;;;3.08;1.80;;;10.80;99.90;;;;;;5113883;28;20043;-78
2022/05/13 02:21:10;;;;;;;6.25;2.35;;;10.80;99.90;;;;;;5113514;28;20039;-78
2022/05/13 02:23:37;;;;;;;6.50;2.28;;;10.80;99.90;;;;;;5114099;28;20415;-78
2022/05/13 02:26:06;;;;;;;5.88;2.05;;;10.80;99.90;;;;;;5096793;28;20512;-80
2022/05/13 02:28:32;;;;;;;5.38;1.70;;;10.80;99.90;;;;;;5114149;28;20071;-79
2022/05/13 02:31:01;;;;;;;6.68;2.15;;;10.80;99.90;;;;;;5113535;28;20417;-79
2022/05/13 02:33:28;;;;;;;4.97;2.22;;;10.80;99.90;;;;;;5113640;28;20035;-78
2022/05/13 02:35:54;;;;;;;5.63;2.63;;;10.90;99.90;;;;;;5132309;28;20046;-78
2022/05/13 02:38:20;;;;;;;4.18;1.77;;;10.90;99.90;;;;;;5113911;28;20080;-78
2022/05/13 02:43:30;;;;;;;3.05;1.45;;;10.80;99.90;;;;;;5113874;28;20627;-79
2022/05/13 02:45:57;;;;;;;5.63;2.00;;;10.80;99.90;;;;;;5113827;28;20051;-79
2022/05/13 02:48:22;;;;;;;9.10;2.33;;;10.80;99.90;;;;;;5113720;28;20039;-78
2022/05/13 02:50:48;;;;;;;9.35;2.20;;;10.80;99.90;;;;;;5113266;28;20113;-78
2022/05/13 02:53:14;;;;;;;6.85;1.73;;;10.80;99.90;;;;;;5113896;28;20130;-78
2022/05/13 02:55:40;;;;;;;9.82;2.40;;;10.70;99.90;;;;;;5113667;28;20047;-79
2022/05/13 02:58:06;;;;;;;3.03;1.77;;;10.70;99.90;;;;;;5114442;27;20050;-79
2022/05/13 03:00:33;;;;;;;8.43;1.70;;;10.70;99.90;;;;;;5116790;27;20043;-79
2022/05/13 03:02:58;;;;;;;4.60;1.73;;;10.70;99.90;;;;;;5117420;27;20190;-78
2022/05/13 03:05:24;;;;;;;4.50;2.13;;;10.70;99.90;;;;;;5117674;27;20477;-79
2022/05/13 03:07:50;;;;;;;6.82;2.10;;;10.70;99.90;;;;;;5135556;27;20042;-79
2022/05/13 03:10:17;;;;;;;5.68;1.90;;;10.70;99.90;;;;;;5117129;27;20043;-78
2022/05/13 03:12:43;;;;;;;7.85;2.22;;;10.70;99.90;;;;;;5117186;27;20055;-79
2022/05/13 03:15:10;;;;;;;8.75;2.17;;;10.70;99.90;;;;;;5117081;27;20469;-78
2022/05/13 03:17:36;;;;;;;9.15;2.00;;;10.70;99.90;;;;;;5116935;27;20091;-78
2022/05/13 03:20:06;;;;;;;7.68;1.88;;;10.70;99.90;;;;;;5116643;27;20047;-78
2022/05/13 03:22:32;;;;;;;12.57;3.30;;;10.80;99.90;;;;;;5116944;27;20039;-78
2022/05/13 03:24:59;;;;;;;6.03;2.00;;;10.80;99.90;;;;;;5116758;27;20046;-78
2022/05/13 03:27:26;;;;;;;8.48;2.13;;;10.70;99.90;;;;;;5099610;27;20038;-78
2022/05/13 03:29:52;;;;;;;7.53;2.20;;;10.80;99.90;;;;;;5116585;27;20043;-78
2022/05/13 03:32:17;;;;;;;8.27;1.80;;;10.80;99.90;;;;;;5116751;27;20049;-78
2022/05/13 03:34:43;;;;;;;10.70;2.10;;;10.80;99.90;;;;;;5116821;27;20122;-78
2022/05/13 03:37:08;;;;;;;5.38;1.92;;;10.80;99.90;;;;;;5136107;27;20035;-78
2022/05/13 03:39:34;;;;;;;6.55;1.98;;;10.80;99.90;;;;;;5138037;27;20054;-79
2022/05/13 03:41:59;;;;;;;7.25;2.45;;;10.80;99.90;;;;;;5135342;27;20043;-81
2022/05/13 03:44:25;;;;;;;6.85;1.80;;;10.80;99.90;;;;;;5122018;27;20038;-79
2022/05/13 03:46:50;;;;;;;8.50;2.78;;;10.80;99.90;;;;;;5116590;27;20054;-79
2022/05/13 03:49:16;;;;;;;5.55;2.33;;;10.80;99.90;;;;;;5116349;27;20042;-78
2022/05/13 03:51:42;;;;;;;8.48;1.90;;;10.70;99.90;;;;;;5115936;27;20039;-79
2022/05/13 03:54:08;;;;;;;7.60;1.80;;;10.80;99.90;;;;;;5116174;27;20042;-80
2022/05/13 03:56:33;;;;;;;8.88;3.22;;;10.80;99.90;;;;;;5116112;27;20067;-79
2022/05/13 03:58:59;;;;;;;5.47;2.42;;;10.80;99.90;;;;;;5116069;27;20139;-78
2022/05/13 04:01:25;;;;;;;6.82;1.95;;;10.80;99.90;;;;;;5115912;27;20050;-78
2022/05/13 04:03:50;;;;;;;9.65;1.95;;;10.80;99.90;;;;;;5099313;27;20130;-78
2022/05/13 04:09:03;;;;;;;4.80;2.03;;;10.90;99.90;;;;;;5116029;27;20099;-78
2022/05/13 04:11:36;;;;;;;12.63;2.63;;;10.90;99.90;;;;;;5114935;27;20125;-77
2022/05/13 04:16:51;;;;;;;6.65;2.45;;;10.90;99.90;;;;;;5115711;27;20057;-79
2022/05/13 04:19:17;;;;;;;5.57;2.17;;;10.90;99.90;;;;;;5115621;27;20039;-78
2022/05/13 04:21:44;;;;;;;12.07;2.58;;;10.90;99.90;;;;;;5115312;27;20043;-78
2022/05/13 04:24:12;;;;;;;7.03;2.38;;;10.90;99.90;;;;;;5098381;27;20482;-78
2022/05/13 04:26:37;;;;;;;8.45;2.08;;;11.00;99.90;;;;;;5115662;27;20031;-77
2022/05/13 04:29:04;;;;;;;8.90;3.00;;;11.00;99.90;;;;;;5116080;27;20439;-77
2022/05/13 04:31:34;;;;;;;9.82;3.05;;;11.00;99.90;;;;;;5115071;27;20399;-77
2022/05/13 04:33:59;;;;;;;8.38;1.90;;;11.00;99.90;;;;;;5115491;27;20068;-76
2022/05/13 04:36:26;;;;;;;14.20;2.30;;;11.00;99.90;;;;;;5133910;27;20059;-77
2022/05/13 04:38:53;;;;;;;5.82;2.30;;;11.00;99.90;;;;;;5115744;27;20126;-76
2022/05/13 04:44:03;;;;;;;13.88;2.20;;;11.10;99.90;;;;;;5115387;27;20410;-80
2022/05/13 04:46:30;;;;;;;8.00;2.40;;;11.10;99.90;;;;;;5115531;27;20046;-78
2022/05/13 04:48:56;;;;;;;11.95;2.65;;;11.10;99.90;;;;;;5115372;27;20390;-77
2022/05/13 04:51:22;;;;;;;7.97;2.58;;;11.10;99.90;;;;;;5133164;27;20394;-77
2022/05/13 04:53:50;;;;;;;10.00;2.72;;;11.10;99.90;;;;;;5115179;27;20049;-77
2022/05/13 04:56:16;;;;;;;5.22;1.95;;;11.10;99.90;;;;;;5115049;27;20035;-78
2022/05/13 04:58:42;;;;;;;7.70;2.53;;;11.20;99.90;;;;;;5115242;27;20466;-77
2022/05/13 05:01:09;;;;;;;10.32;2.67;;;11.20;99.90;;;;;;5114613;27;20100;-77
2022/05/13 05:03:35;;;;;;;7.63;2.25;;;11.30;99.90;;;;;;5114792;27;20470;-77
2022/05/13 05:06:01;;;;;;;8.90;2.78;;;11.30;99.90;;;;;;5115101;27;20066;-77
2022/05/13 05:08:28;;;;;;;18.23;3.33;;;11.30;99.90;;;;;;5115255;27;20039;-77
2022/05/13 05:10:54;;;;;;;10.05;2.65;;;11.40;99.90;;;;;;5114745;27;20079;-78
2022/05/13 05:13:26;;;;;;;9.27;2.95;;;11.40;99.90;;;;;;5115168;27;20460;-77
2022/05/13 05:15:52;;;;;;;13.63;2.80;;;11.50;99.90;;;;;;5114772;27;20039;-77
2022/05/13 05:18:18;;;;;;;12.68;2.95;;;11.50;99.90;;;;;;5114739;27;20482;-78
2022/05/13 05:20:45;;;;;;;12.07;2.90;;;11.60;99.90;;;;;;5097550;27;20198;-79
2022/05/13 05:23:29;;;;;;;8.02;3.13;;;11.70;99.90;;;;;;5114559;27;20142;-78
2022/05/13 05:25:55;;;;;;;10.13;3.15;;;11.80;99.90;;;;;;5114697;27;20047;-77
2022/05/13 05:28:21;;;;;;;15.88;3.15;;;11.90;99.90;;;;;;5114579;27;20042;-77
2022/05/13 05:30:47;;;;;;;10.27;3.25;;;12.20;99.90;;;;;;5114430;27;20119;-78
2022/05/13 05:33:14;;;;;;;11.20;3.35;;;12.40;99.90;;;;;;5114549;27;20047;-77
2022/05/13 05:35:40;;;;;;;9.57;3.42;;;12.40;99.90;;;;;;5114939;27;20054;-78
2022/05/13 05:38:07;;;;;;;16.35;3.97;;;12.50;99.90;;;;;;5114919;27;20047;-78
2022/05/13 05:40:34;;;;;;;11.20;3.55;;;12.70;99.90;;;;;;5133024;27;20043;-78
2022/05/13 05:43:08;;;;;;;8.98;2.97;;;13.00;99.90;;;;;;5115181;27;20036;-79
2022/05/13 05:45:35;;;;;;;11.05;3.60;;;13.40;99.90;;;;;;5102153;27;20381;-78
2022/05/13 05:48:01;;;;;;;10.35;3.20;;;13.60;99.90;;;;;;5101825;28;20035;-78
2022/05/13 05:50:27;;;;;;;14.75;3.03;;;13.70;99.90;;;;;;5098029;28;20039;-77
2022/05/13 05:52:52;;;;;;;13.25;3.20;;;13.80;99.90;;;;;;5110669;28;20046;-79
2022/05/13 05:58:09;;;;;;;10.73;3.47;;;14.60;99.90;;;;;;5094623;28;20406;-79
2022/05/13 06:00:38;;;;;;;8.70;3.00;;;15.20;99.90;;;;;;5081754;28;20039;-79
2022/05/13 06:03:04;;;;;;;12.98;3.45;;;15.40;99.90;;;;;;5132437;28;20046;-81
2022/05/13 06:05:30;;;;;;;15.20;2.97;;;15.30;99.90;;;;;;5100085;28;20436;-81
2022/05/13 06:07:58;;;;;;;13.77;3.67;;;15.20;99.90;;;;;;5116188;28;20031;-79
2022/05/13 06:10:25;;;;;;;9.18;2.45;;;15.10;99.90;;;;;;5114959;28;20050;-79
2022/05/13 06:12:50;;;;;;;13.40;2.58;;;15.30;99.90;;;;;;5114838;28;20042;-80
2022/05/13 06:15:16;;;;;;;8.38;2.45;;;15.30;99.90;;;;;;5115749;28;20049;-81
2022/05/13 06:17:50;;;;;;;13.88;3.38;;;15.30;99.90;;;;;;5110001;28;20039;-79
2022/05/13 06:20:18;;;;;;;11.23;2.40;;;15.30;99.90;;;;;;5095645;28;20044;-79
2022/05/13 06:22:44;;;;;;;10.88;3.17;;;15.30;99.90;;;;;;5095030;28;20032;-79
2022/05/13 06:25:11;;;;;;;8.60;2.38;;;15.40;99.90;;;;;;5095023;28;20160;-79
2022/05/13 06:27:37;;;;;;;9.57;1.95;;;15.40;99.90;;;;;;5094852;28;20439;-80
2022/05/13 06:30:06;;;;;;;10.00;2.53;;;15.40;99.90;;;;;;5096149;28;20046;-79
2022/05/13 06:32:32;;;;;;;5.57;2.38;;;15.30;99.90;;;;;;5096076;28;20040;-79
2022/05/13 06:34:57;;;;;;;11.68;2.42;;;15.20;99.90;;;;;;5100749;28;20034;-80
2022/05/13 06:37:23;;;;;;;12.65;2.72;;;15.10;99.90;;;;;;5105461;27;20047;-80
2022/05/13 06:39:48;;;;;;;7.72;2.47;;;15.00;99.90;;;;;;5111423;27;20043;-80
2022/05/13 06:42:16;;;;;;;9.98;2.85;;;14.90;99.90;;;;;;5117002;27;20123;-78
2022/05/13 06:44:42;;;;;;;8.27;2.60;;;14.80;99.90;;;;;;5115455;27;20038;-79
2022/05/13 06:47:09;;;;;;;22.00;9.80;;;14.80;99.90;;;;;;5091975;27;20084;-78
2022/05/13 06:49:35;;;;;;;5.30;1.58;;;14.70;99.90;;;;;;5111750;27;20039;-78
2022/05/13 06:52:02;;;;;;;7.25;2.22;;;14.70;99.90;;;;;;5094755;27;20076;-77
2022/05/13 06:54:28;;;;;;;5.95;1.10;;;14.60;99.90;;;;;;5110786;27;20043;-78
2022/05/13 06:56:54;;;;;;;10.73;1.40;;;14.70;99.90;;;;;;5091056;27;20066;-78
2022/05/13 06:59:21;;;;;;;4.68;1.50;;;14.80;99.90;;;;;;5109654;27;20074;-78
2022/05/13 07:01:46;;;;;;;16.63;3.38;;;14.80;99.90;;;;;;5109078;27;20039;-77
2022/05/13 07:04:12;;;;;;;6.10;1.30;;;14.90;99.90;;;;;;5106204;27;20031;-77
2022/05/13 07:06:38;;;;;;;10.48;1.58;;;15.00;99.90;;;;;;5088962;27;20036;-76
2022/05/13 07:09:04;;;;;;;5.70;1.48;;;15.10;99.90;;;;;;5111837;27;20732;-76
2022/05/13 07:11:30;;;;;;;5.10;1.20;;;15.30;99.90;;;;;;5131454;27;20031;-78
2022/05/13 07:13:56;;;;;;;3.65;1.02;;;15.30;99.90;;;;;;5150201;27;20095;-77
2022/05/13 07:16:22;;;;;;;3.78;1.60;;;15.30;99.90;;;;;;5115630;27;20031;-78
2022/05/13 07:18:48;;;;;;;6.95;1.70;;;15.20;99.90;;;;;;5112751;27;20053;-78
2022/05/13 07:21:14;;;;;;;4.93;1.45;;;15.10;99.90;;;;;;5109668;27;20039;-77
2022/05/13 07:23:40;;;;;;;6.20;1.50;;;15.10;99.90;;;;;;5108688;27;20061;-77
2022/05/13 07:26:06;;;;;;;5.40;1.73;;;15.10;99.90;;;;;;5088869;27;20031;-77
2022/05/13 07:28:33;;;;;;;5.20;1.50;;;15.40;99.90;;;;;;5104963;27;20034;-78
2022/05/13 07:31:00;;;;;;;4.50;1.70;;;16.00;99.90;;;;;;5108547;27;20452;-78
2022/05/13 07:33:29;;;;;;;7.82;1.40;;;16.40;99.90;;;;;;5106414;27;20505;-77
2022/05/13 07:35:55;;;;;;;4.30;1.35;;;16.50;99.90;;;;;;5088041;27;20042;-78
2022/05/13 07:38:21;;;;;;;10.18;1.65;;;16.60;99.90;;;;;;5102751;27;20126;-78
2022/05/13 07:43:31;;;;;;;6.03;2.00;;;17.70;99.90;;;;;;5126349;27;20401;-78
2022/05/13 07:45:56;;;;;;;7.53;1.52;;;18.10;99.90;;;;;;5108890;27;20031;-78
2022/05/13 07:48:22;;;;;;;2.95;1.20;;;18.30;99.90;;;;;;5106866;27;20046;-79
2022/05/13 07:50:48;;;;;;;12.77;2.05;;;18.70;99.90;;;;;;5093708;27;20137;-79
2022/05/13 07:53:13;;;;;;;6.65;1.40;;;18.90;99.90;;;;;;5091547;27;20039;-79
2022/05/13 07:55:39;;;;;;;5.10;1.70;;;18.70;99.90;;;;;;5103866;27;20081;-78
2022/05/13 07:58:04;;;;;;;4.80;1.30;;;18.50;99.90;;;;;;5087158;27;20035;-80
2022/05/13 08:00:32;;;;;;;6.13;1.23;;;18.40;99.90;;;;;;5087594;27;20038;-79
2022/05/13 08:03:06;;;;;;;7.85;1.70;;;18.30;99.90;;;;;;5108054;27;20451;-78
2022/05/13 08:05:40;;;;;;;4.15;1.60;;;18.20;99.90;;;;;;5108356;27;20043;-80
2022/05/13 08:08:21;;;;;;;3.40;1.20;;;18.30;99.90;;;;;;5108014;27;20039;-79
2022/05/13 08:10:51;;;;;;;4.32;1.10;;;18.60;99.90;;;;;;5111896;27;20043;-80
2022/05/13 08:13:17;;;;;;;3.58;1.10;;;18.50;99.90;;;;;;5106361;27;20070;-79
2022/05/13 08:15:43;;;;;;;5.07;1.55;;;18.10;99.90;;;;;;5109935;27;20106;-77
2022/05/13 08:18:09;;;;;;;2.13;1.10;;;17.70;99.90;;;;;;5107278;27;20039;-81
2022/05/13 08:20:35;;;;;;;7.28;2.95;;;17.40;99.90;;;;;;5104555;27;20036;-79
2022/05/13 08:23:01;;;;;;;8.25;1.52;;;17.10;99.90;;;;;;5105538;27;20121;-77
2022/05/13 08:25:27;;;;;;;6.38;1.65;;;16.90;99.90;;;;;;5106958;27;20122;-76
2022/05/13 08:27:53;;;;;;;8.20;1.23;;;16.70;99.90;;;;;;5109791;27;20482;-77
2022/05/13 08:30:19;;;;;;;5.93;1.02;;;16.60;99.90;;;;;;5103305;27;20040;-77
2022/05/13 08:32:45;;;;;;;4.10;1.02;;;16.60;99.90;;;;;;5089708;27;20039;-78
2022/05/13 08:35:13;;;;;;;6.82;1.15;;;16.70;99.90;;;;;;5106856;27;20039;-78
2022/05/13 08:37:45;;;;;;;4.32;0.93;;;16.90;99.90;;;;;;5088163;27;20039;-78
2022/05/13 08:40:22;;;;;;;6.80;1.65;;;17.30;99.90;;;;;;5103992;27;20040;-78
2022/05/13 08:42:49;;;;;;;6.03;1.38;;;17.60;99.90;;;;;;5107341;27;20043;-77
2022/05/13 08:45:17;;;;;;;3.00;1.27;;;17.80;99.90;;;;;;5107027;27;20043;-78
2022/05/13 08:47:58;;;;;;;2.55;0.75;;;17.70;99.90;;;;;;5107385;27;20043;-77
2022/05/13 08:50:30;;;;;;;4.50;1.23;;;17.40;99.90;;;;;;5088545;27;20114;-74
2022/05/13 08:53:18;;;;;;;3.90;1.13;;;17.20;99.90;;;;;;5081885;27;20049;-77
2022/05/13 08:55:49;;;;;;;1.10;0.80;;;17.40;99.90;;;;;;5092232;28;20424;-77
2022/05/13 08:58:31;;;;;;;6.28;1.35;;;17.60;99.90;;;;;;5106711;27;20517;-75
2022/05/13 09:00:58;;;;;;;;;;;18.00;99.90;;;;;;5105937;27;20168;-77
2022/05/13 09:03:47;;;;;;;8.25;1.45;;;18.20;99.90;;;;;;5124491;27;19984;-77
2022/05/13 09:06:31;;;;;;;4.18;1.10;;;18.20;99.90;;;;;;5085788;27;20675;-77
2022/05/13 09:09:00;;;;;;;4.32;1.33;;;18.00;99.90;;;;;;5105545;27;20039;-77
2022/05/13 09:11:38;;;;;;;3.75;0.70;;;17.70;99.90;;;;;;5124115;27;20044;-76
2022/05/13 09:14:26;;;;;;;4.32;1.08;;;17.50;99.90;;;;;;5106979;27;20103;-77
2022/05/13 09:17:10;;;;;;;2.25;0.98;;;17.30;99.90;;;;;;5085556;27;20035;-76
2022/05/13 09:19:59;;;;;;;6.70;1.25;;;17.80;99.90;;;;;;5099174;28;20118;-76
2022/05/13 09:22:42;;;;;;;4.45;0.98;;;18.20;99.90;;;;;;5107318;27;20130;-77
2022/05/13 09:25:22;;;;;;;3.17;0.88;;;18.20;99.90;;;;;;5107852;27;20067;-76
2022/05/13 09:27:59;;;;;;;4.15;1.20;;;18.00;99.90;;;;;;5107897;27;20038;-78
2022/05/13 09:30:34;;;;;;;2.75;1.05;;;17.90;99.90;;;;;;5106063;27;20047;-77
2022/05/13 09:33:22;;;;;;;6.07;1.15;;;17.80;99.90;;;;;;5109275;27;20047;-78
2022/05/13 09:35:54;;;;;;;4.50;1.63;;;17.70;99.90;;;;;;5108317;27;20397;-78
2022/05/13 09:38:24;;;;;;;4.30;1.00;;;17.60;99.90;;;;;;5124658;27;20055;-77
2022/05/13 09:41:05;;;;;;;7.72;1.48;;;17.50;99.90;;;;;;5131665;27;20042;-78
2022/05/13 09:43:52;;;;;;;5.60;1.08;;;17.40;99.90;;;;;;5113909;27;20046;-78
2022/05/13 09:46:31;;;;;;;3.63;1.65;;;17.20;99.90;;;;;;5113906;28;20084;-78
2022/05/13 09:49:25;;;;;;;5.88;1.20;;;17.00;99.90;;;;;;5113845;27;20035;-78
2022/05/13 09:52:16;;;;;;;8.05;1.88;;;16.90;99.90;;;;;;5096991;28;20124;-77
2022/05/13 09:54:48;;;;;;;2.28;0.85;;;16.70;99.90;;;;;;5102433;28;20059;-77
2022/05/13 09:57:33;;;;;;;3.28;1.20;;;16.70;99.90;;;;;;5132605;28;20409;-79
2022/05/13 10:00:15;;;;;;;4.75;1.15;;;16.80;99.90;;;;;;5120064;28;20043;-77
2022/05/13 10:02:47;;;;;;;4.95;0.98;;;16.70;99.90;;;;;;5093371;28;20047;-79
2022/05/13 10:05:24;;;;;;;7.07;1.20;;;16.90;99.90;;;;;;5098598;28;20032;-77
2022/05/13 10:07:49;;;;;;;4.45;0.93;;;17.50;99.90;;;;;;5093631;28;20559;-77
2022/05/13 10:16:16;;;;;;;6.93;1.38;;;18.80;99.90;;;;;;5098305;28;20079;-79
2022/05/13 10:18:55;;;;;;;4.88;1.05;;;18.90;99.90;;;;;;5089430;27;20035;-78
2022/05/13 10:21:26;;;;;;;2.58;1.30;;;19.00;99.90;;;;;;5091240;27;20103;-78
2022/05/13 10:24:04;;;;;;;3.22;0.90;;;19.00;99.90;;;;;;5101095;28;20049;-78
2022/05/13 10:26:35;;;;;;;19.30;8.40;;;19.20;99.90;;;;;;5109524;27;20045;-79
2022/05/13 10:29:04;;;;;;;4.70;1.38;;;19.00;99.90;;;;;;5108833;27;20039;-78
2022/05/13 10:31:34;;;;;;;3.83;1.08;;;18.90;99.90;;;;;;5105878;27;20138;-78
2022/05/13 10:34:05;;;;;;;7.38;1.40;;;18.70;99.90;;;;;;5110566;27;20123;-78
2022/05/13 10:37:05;;;;;;;4.20;1.20;;;18.50;99.90;;;;;;5094426;27;20043;-77
2022/05/13 10:39:52;;;;;;;5.70;0.90;;;18.50;99.90;;;;;;5124877;27;20114;-77
2022/05/13 10:42:25;;;;;;;8.00;1.75;;;18.70;99.90;;;;;;5098521;28;20044;-78
2022/05/13 10:44:58;;;;;;;7.03;1.45;;;18.90;99.90;;;;;;5096774;28;20189;-78
2022/05/13 10:47:48;;;;;;;5.90;1.10;;;19.10;99.90;;;;;;5096461;28;20494;-77
2022/05/13 10:50:23;;;;;;;4.22;1.20;;;19.40;99.90;;;;;;5096458;28;20536;-78
2022/05/13 10:53:33;;;;;;;5.10;0.93;;;19.60;98.60;;;;;;5079612;28;20490;-78
2022/05/13 10:56:34;;;;;;;4.85;1.10;;;19.80;99.50;;;;;;5098065;28;20040;-79
2022/05/13 10:59:09;;;;;;;2.63;1.00;;;19.80;96.60;;;;;;5098441;28;20096;-78
2022/05/13 11:02:10;;;;;;;6.70;1.27;;;19.60;97.30;;;;;;5096420;28;20071;-77
2022/05/13 11:04:55;;;;;;;5.83;1.20;;;19.50;94.10;;;;;;5012366;28;20056;-77
2022/05/13 11:07:44;;;;;;;4.03;1.25;;;19.70;96.80;;;;;;5096975;28;20039;-79
2022/05/13 11:10:41;;;;;;;3.70;0.95;;;19.60;94.20;;;;;;5096049;28;20566;-77
2022/05/13 11:13:34;;;;;;;3.30;1.20;;;19.30;93.30;;;;;;5064502;28;20058;-78
2022/05/13 11:16:01;;;;;;;4.53;0.82;;;19.10;94.20;;;;;;5137178;28;20368;-79
2022/05/13 11:18:47;;;;;;;2.33;1.10;;;19.00;96.00;;;;;;5094403;28;20043;-78
2022/05/13 11:21:44;;;;;;;4.50;1.08;;;19.10;95.40;;;;;;5120004;28;20058;-79
2022/05/13 11:27:43;;;;;;;6.63;1.58;;;19.00;96.00;;;;;;5098897;28;20116;-79
2022/05/13 11:30:16;;;;;;;5.90;1.80;;;19.40;96.70;;;;;;5100820;28;20114;-79
2022/05/13 11:33:16;;;;;;;3.88;1.58;;;19.70;95.60;;;;;;5098144;28;20032;-78
2022/05/13 11:35:53;;;;;;;6.40;1.58;;;20.00;96.20;;;;;;5099743;28;20032;-78
2022/05/13 11:38:23;;;;;;;5.82;1.50;;;20.40;95.10;;;;;;5097518;28;20494;-78
2022/05/13 11:40:56;;;;;;;10.82;1.80;;;20.50;94.30;;;;;;5096615;28;20436;-78
2022/05/13 11:43:53;;;;;;;5.10;1.85;;;20.20;94.10;;;;;;5097082;28;20069;-80
2022/05/13 11:46:44;;;;;;;1.90;1.00;;;19.70;92.20;;;;;;5098501;28;20047;-78
2022/05/13 11:49:31;;;;;;;5.03;1.23;;;19.40;94.10;;;;;;5096986;28;20513;-79
2022/05/13 11:52:27;;;;;;;2.40;1.10;;;19.00;94.50;;;;;;5097851;28;20039;-79
2022/05/13 11:55:13;;;;;;;5.32;1.60;;;18.60;94.50;;;;;;5096962;28;20124;-80
2022/05/13 11:57:44;;;;;;;9.32;1.83;;;18.40;96.30;;;;;;5097554;28;20048;-80
2022/05/13 12:00:24;;;;;;;3.65;1.40;;;18.30;97.50;;;;;;5097170;28;20088;-79
2022/05/13 12:02:55;;;;;;;5.57;1.42;;;18.30;97.90;;;;;;5096321;28;20071;-77
2022/05/13 12:05:20;;;;;;;3.67;1.45;;;18.30;98.00;;;;;;5095288;28;20032;-77
2022/05/13 12:08:03;;;;;;;4.22;1.40;;;18.50;97.90;;;;;;5113703;28;20066;-79
2022/05/13 12:11:03;;;;;;;6.10;1.23;;;18.70;97.80;;;;;;5095666;28;20057;-80
2022/05/13 12:13:53;;;;;;;6.25;1.70;;;19.10;97.40;;;;;;5095961;28;20049;-79
2022/05/13 12:16:40;;;;;;;4.35;1.23;;;19.20;97.10;;;;;;5095651;28;20052;-79
2022/05/13 12:19:31;;;;;;;3.78;1.20;;;19.10;97.00;;;;;;5095282;28;20121;-80
2022/05/13 12:22:20;;;;;;;3.67;1.50;;;19.20;96.70;;;;;;5094825;28;20043;-79
2022/05/13 12:25:05;;;;;;;10.32;1.90;;;19.40;96.10;;;;;;5095391;28;20113;-79
2022/05/13 12:27:43;;;;;;;3.58;1.30;;;19.20;95.90;;;;;;5095097;28;20035;-79
2022/05/13 12:30:12;;;;;;;4.38;1.50;;;19.10;96.00;;;;;;5077854;28;20078;-80
2022/05/13 12:32:45;;;;;;;6.25;1.42;;;19.20;95.30;;;;;;5077893;28;20058;-79
2022/05/13 12:38:14;;;;;;;3.95;1.30;;;19.00;93.80;;;;;;5094614;28;20055;-79
2022/05/13 12:40:51;;;;;;;4.15;1.30;;;19.00;94.70;;;;;;5077868;28;20039;-80
2022/05/13 12:43:25;;;;;;;3.72;1.08;;;19.30;95.90;;;;;;5094765;28;20046;-80
2022/05/13 12:46:01;;;;;;;4.38;1.52;;;19.80;94.50;;;;;;5094859;28;20490;-80
2022/05/13 12:48:27;;;;;;;4.93;1.20;;;20.20;92.80;;;;;;5094840;28;20040;-79
2022/05/13 12:51:11;;;;;;;6.85;1.02;;;20.50;92.40;;;;;;5094706;28;20043;-81
2022/05/13 12:53:48;;;;;;;2.42;1.00;;;20.40;87.00;;;;;;5096593;28;20047;-81
2022/05/13 12:56:36;;;;;;;1.63;0.88;;;20.10;88.60;;;;;;5094488;28;20051;-79
2022/05/13 12:59:15;;;;;;;4.35;1.05;;;19.80;89.10;;;;;;5094428;28;20043;-79
2022/05/13 13:01:48;;;;;;;3.40;1.13;;;19.90;89.50;;;;;;5093883;28;20104;-79
2022/05/13 13:04:17;;;;;;;4.32;1.17;;;20.10;90.00;;;;;;5077609;28;20035;-81
2022/05/13 13:06:47;;;;;;;2.15;1.25;;;20.40;87.70;;;;;;5095524;28;20109;-81
2022/05/13 13:09:30;;;;;;;3.60;1.20;;;20.30;80.10;;;;;;5094210;28;20061;-79
2022/05/13 13:12:07;;;;;;;5.38;1.02;;;20.40;82.60;;;;;;5094394;28;20090;-80
2022/05/13 13:14:33;;;;;;;4.35;0.82;;;20.40;79.70;;;;;;5078632;28;20086;-78
2022/05/13 13:17:36;;;;;;;7.43;1.05;;;20.20;79.80;;;;;;5094038;28;20092;-79
2022/05/13 13:20:06;;;;;;;2.90;1.02;;;20.10;77.30;;;;;;5077984;28;20047;-80
2022/05/13 13:22:37;;;;;;;4.57;0.90;;;19.90;79.00;;;;;;5094943;28;20075;-80
2022/05/13 13:25:26;;;;;;;3.13;1.10;;;19.80;80.20;;;;;;5095580;28;20120;-79
2022/05/13 13:27:58;;;;;;;7.50;1.00;;;19.90;80.10;;;;;;5095462;28;20047;-82
2022/05/13 13:30:25;;;;;;;3.67;1.50;;;19.70;81.50;;;;;;5094680;28;20050;-80
2022/05/13 13:32:52;;;;;;;4.38;0.95;;;19.50;83.10;;;;;;5113596;28;20043;-78
2022/05/13 13:35:33;;;;;;;4.68;0.80;;;19.30;81.70;;;;;;5113099;28;20040;-77
2022/05/13 13:38:01;;;;;;;4.00;0.90;;;19.10;79.80;;;;;;5076983;28;20050;-78